Time;durP1;ratioP1;P1;durP2;ratioP2;P2;SDS_P1;SDS_P2;PMS_P1;PMS_P2;Temp;Humidity;BMP_temperature;BMP_pressure;BME280_temperature;BME280_humidity;BME280_pressure;Samples;Min_cycle;Max_cycle;Signal;HPM_P1;HPM_P2
2022/01/05 00:00:13;;;;;;;3.93;1.50;;;4.50;99.90;;;;;;5074144;28;20794;-79
2022/01/05 00:02:41;;;;;;;5.70;1.77;;;4.50;99.90;;;;;;5068004;28;20486;-79
2022/01/05 00:05:09;;;;;;;3.97;1.80;;;4.60;99.90;;;;;;5074658;28;20454;-80
2022/01/05 00:07:36;;;;;;;6.33;2.30;;;4.60;99.90;;;;;;5077755;28;20506;-80
2022/01/05 00:10:04;;;;;;;9.30;1.90;;;4.60;99.90;;;;;;5074259;28;20455;-78
2022/01/05 00:12:30;;;;;;;7.70;1.90;;;4.60;99.90;;;;;;5062461;28;20452;-79
2022/01/05 00:14:57;;;;;;;4.70;2.30;;;4.60;99.90;;;;;;5063321;28;20534;-80
2022/01/05 00:17:24;;;;;;;4.50;2.20;;;4.60;99.90;;;;;;5064018;28;20461;-80
2022/01/05 00:19:52;;;;;;;6.60;2.07;;;4.70;99.90;;;;;;5072619;28;21215;-78
2022/01/05 00:22:19;;;;;;;7.80;2.60;;;4.60;99.90;;;;;;5057991;28;20461;-80
2022/01/05 00:24:46;;;;;;;8.10;2.50;;;4.60;99.90;;;;;;5073094;28;20452;-79
2022/01/05 00:27:13;;;;;;;5.33;2.27;;;4.50;99.90;;;;;;5075089;28;20471;-80
2022/01/05 00:29:40;;;;;;;6.63;2.33;;;4.50;99.90;;;;;;5076121;28;20462;-79
2022/01/05 00:32:07;;;;;;;11.20;4.17;;;4.50;99.90;;;;;;5076952;28;20802;-80
2022/01/05 00:34:34;;;;;;;11.53;3.63;;;4.40;99.90;;;;;;5076470;28;20499;-80
2022/01/05 00:37:03;;;;;;;7.40;3.20;;;4.50;99.90;;;;;;5078036;28;20453;-80
2022/01/05 00:39:29;;;;;;;7.23;3.17;;;4.60;99.90;;;;;;5066225;28;20453;-80
2022/01/05 00:41:56;;;;;;;8.20;2.60;;;4.60;99.90;;;;;;5067902;28;20840;-80
2022/01/05 00:44:24;;;;;;;7.43;2.40;;;4.60;99.90;;;;;;5069689;28;20541;-80
2022/01/05 00:46:51;;;;;;;4.07;2.07;;;4.70;99.90;;;;;;5059006;28;20480;-79
2022/01/05 00:49:18;;;;;;;12.93;2.70;;;4.60;99.90;;;;;;5077153;28;20475;-80
2022/01/05 00:51:45;;;;;;;6.67;1.93;;;4.70;99.90;;;;;;5067526;28;20461;-80
2022/01/05 00:54:13;;;;;;;3.90;2.07;;;4.70;99.90;;;;;;5075531;28;20448;-80
2022/01/05 00:56:40;;;;;;;13.13;3.27;;;4.70;99.90;;;;;;5082319;28;20957;-80
2022/01/05 00:59:07;;;;;;;7.03;2.53;;;4.60;99.90;;;;;;5074567;28;20472;-80
2022/01/05 01:01:34;;;;;;;5.73;2.70;;;4.70;99.90;;;;;;5075460;28;20457;-80
2022/01/05 01:04:01;;;;;;;7.17;3.07;;;4.70;99.90;;;;;;5069101;28;20462;-80
2022/01/05 01:06:27;;;;;;;8.67;2.87;;;4.60;99.90;;;;;;5056899;28;20496;-80
2022/01/05 01:08:54;;;;;;;6.43;3.00;;;4.60;99.90;;;;;;5065819;28;20491;-80
2022/01/05 01:11:22;;;;;;;6.17;3.10;;;4.60;99.90;;;;;;5059523;28;20453;-80
2022/01/05 01:13:49;;;;;;;8.27;2.90;;;4.50;99.90;;;;;;5063241;28;20457;-80
2022/01/05 01:16:16;;;;;;;6.30;3.60;;;4.50;99.90;;;;;;5062118;28;20464;-79
2022/01/05 01:18:43;;;;;;;7.17;4.47;;;4.50;99.90;;;;;;5061062;28;21178;-80
2022/01/05 01:21:10;;;;;;;7.43;3.73;;;4.50;99.90;;;;;;5068888;28;20474;-79
2022/01/05 01:23:37;;;;;;;8.07;4.27;;;4.60;99.90;;;;;;5067533;28;20456;-79
2022/01/05 01:26:04;;;;;;;11.83;4.90;;;4.50;99.90;;;;;;5076183;28;20452;-79
2022/01/05 01:28:33;;;;;;;8.00;3.90;;;4.50;99.90;;;;;;5062313;28;20474;-80
2022/01/05 01:30:59;;;;;;;12.73;5.63;;;4.50;99.90;;;;;;5067087;28;20460;-79
2022/01/05 01:33:26;;;;;;;10.77;6.53;;;4.40;99.90;;;;;;5081641;28;20545;-79
2022/01/05 01:35:53;;;;;;;8.70;4.63;;;4.40;99.90;;;;;;5075700;28;20461;-79
2022/01/05 01:38:20;;;;;;;8.57;5.10;;;4.40;99.90;;;;;;5067784;28;20557;-78
2022/01/05 01:40:47;;;;;;;14.53;5.70;;;4.40;99.90;;;;;;5054249;28;20463;-77
2022/01/05 01:43:15;;;;;;;11.27;4.27;;;4.30;99.90;;;;;;5056295;28;20486;-79
2022/01/05 01:45:43;;;;;;;11.33;4.77;;;4.40;99.90;;;;;;5058948;28;20460;-79
2022/01/05 01:48:10;;;;;;;6.83;3.83;;;4.40;99.90;;;;;;5075539;28;20482;-79
2022/01/05 01:50:37;;;;;;;7.00;3.93;;;4.30;99.90;;;;;;5066726;28;20452;-80
2022/01/05 01:53:04;;;;;;;12.20;3.70;;;4.20;99.90;;;;;;5063502;28;20458;-80
2022/01/05 01:55:31;;;;;;;9.47;4.13;;;4.20;99.90;;;;;;5060980;28;20542;-79
2022/01/05 01:58:00;;;;;;;11.23;4.70;;;4.20;99.90;;;;;;5072180;28;20466;-79
2022/01/05 02:00:29;;;;;;;12.00;3.70;;;4.10;99.90;;;;;;5058980;28;20458;-79
2022/01/05 02:02:58;;;;;;;6.83;3.43;;;4.00;99.90;;;;;;5075128;28;20459;-79
2022/01/05 02:05:25;;;;;;;18.40;4.13;;;4.00;99.90;;;;;;5065029;28;20488;-79
2022/01/05 02:07:52;;;;;;;9.17;4.50;;;4.00;99.90;;;;;;5073892;28;20483;-79
2022/01/05 02:10:19;;;;;;;10.13;2.93;;;4.00;99.90;;;;;;5068004;28;20462;-78
2022/01/05 02:12:47;;;;;;;6.00;3.30;;;4.00;99.90;;;;;;5074923;28;20448;-78
2022/01/05 02:15:14;;;;;;;17.17;4.07;;;3.90;99.90;;;;;;5073745;28;20546;-79
2022/01/05 02:17:52;;;;;;;6.40;2.77;;;3.80;99.90;;;;;;5073747;28;20917;-78
2022/01/05 02:20:22;;;;;;;16.00;4.17;;;3.70;99.90;;;;;;5069902;28;20517;-79
2022/01/05 02:22:51;;;;;;;6.50;2.20;;;3.70;99.90;;;;;;5057035;28;20446;-80
2022/01/05 02:25:18;;;;;;;7.20;2.70;;;3.70;99.90;;;;;;5056261;28;20459;-78
2022/01/05 02:27:47;;;;;;;9.13;2.40;;;3.80;99.90;;;;;;5069582;28;20501;-79
2022/01/05 02:30:18;;;;;;;6.00;3.40;;;3.80;99.90;;;;;;5059825;28;20451;-79
2022/01/05 02:32:45;;;;;;;7.97;2.60;;;3.90;99.90;;;;;;5065609;28;20457;-79
2022/01/05 02:35:12;;;;;;;9.17;2.37;;;3.90;99.90;;;;;;5067965;28;20448;-79
2022/01/05 02:37:42;;;;;;;17.40;5.07;;;3.90;99.90;;;;;;5076746;28;20467;-78
2022/01/05 02:40:14;;;;;;;12.20;3.10;;;3.80;99.90;;;;;;5064877;28;20459;-79
2022/01/05 02:42:41;;;;;;;12.23;3.30;;;3.70;99.90;;;;;;5056253;28;20526;-79
2022/01/05 02:45:08;;;;;;;7.57;3.30;;;3.60;99.90;;;;;;5067063;28;20444;-80
2022/01/05 02:47:35;;;;;;;9.87;3.77;;;3.60;99.90;;;;;;5077616;28;20956;-80
2022/01/05 02:50:06;;;;;;;15.53;4.00;;;3.50;99.90;;;;;;5074597;28;20834;-79
2022/01/05 02:52:34;;;;;;;6.67;3.53;;;3.50;99.90;;;;;;5058194;28;20459;-79
2022/01/05 02:55:02;;;;;;;6.27;4.13;;;3.50;99.90;;;;;;5058544;28;20529;-80
2022/01/05 02:57:31;;;;;;;11.73;3.87;;;3.50;99.90;;;;;;5058232;28;20472;-80
2022/01/05 02:59:58;;;;;;;16.97;3.30;;;3.50;99.90;;;;;;5058990;28;20457;-80
2022/01/05 03:02:24;;;;;;;9.80;4.53;;;3.40;99.90;;;;;;5076260;28;20455;-80
2022/01/05 03:04:51;;;;;;;18.07;3.67;;;3.40;99.90;;;;;;5065575;28;21122;-79
2022/01/05 03:07:18;;;;;;;9.73;3.87;;;3.40;99.90;;;;;;5061438;28;20490;-79
2022/01/05 03:09:45;;;;;;;7.00;3.60;;;3.40;99.90;;;;;;5075824;28;20534;-79
2022/01/05 03:12:13;;;;;;;8.43;4.23;;;3.40;99.90;;;;;;5059229;28;20444;-80
2022/01/05 03:14:41;;;;;;;10.23;4.13;;;3.30;99.90;;;;;;5069543;28;20455;-79
2022/01/05 03:17:08;;;;;;;12.30;4.40;;;3.30;99.90;;;;;;5065051;28;20443;-78
2022/01/05 03:19:35;;;;;;;7.53;4.37;;;3.30;99.90;;;;;;5073828;28;20553;-79
2022/01/05 03:22:02;;;;;;;13.97;4.50;;;3.30;99.90;;;;;;5078336;28;20453;-79
2022/01/05 03:24:29;;;;;;;10.77;4.77;;;3.30;99.90;;;;;;5077778;28;20458;-79
2022/01/05 03:26:56;;;;;;;18.57;4.37;;;3.30;99.90;;;;;;5080618;28;20898;-80
2022/01/05 03:29:23;;;;;;;17.53;5.67;;;3.40;99.90;;;;;;5080301;28;20493;-79
2022/01/05 03:31:52;;;;;;;10.43;4.40;;;3.50;99.90;;;;;;5077811;28;20654;-79
2022/01/05 03:34:20;;;;;;;13.27;6.03;;;3.60;99.90;;;;;;5065287;28;20857;-80
2022/01/05 03:36:47;;;;;;;11.47;4.03;;;3.60;99.90;;;;;;5060053;28;20463;-80
2022/01/05 03:39:14;;;;;;;13.40;5.53;;;3.50;99.90;;;;;;5073517;28;20471;-79
2022/01/05 03:41:41;;;;;;;10.40;4.67;;;3.40;99.90;;;;;;5078865;28;20955;-79
2022/01/05 03:44:08;;;;;;;11.33;4.70;;;3.40;99.90;;;;;;5069066;28;20447;-79
2022/01/05 03:46:34;;;;;;;13.70;4.10;;;3.30;99.90;;;;;;5061167;28;20459;-79
2022/01/05 03:49:03;;;;;;;12.40;4.40;;;3.20;99.90;;;;;;5060607;28;21034;-79
2022/01/05 03:51:29;;;;;;;13.90;4.83;;;3.10;99.90;;;;;;5077574;28;20451;-79
2022/01/05 03:53:56;;;;;;;10.07;3.90;;;3.10;99.90;;;;;;5076809;28;20452;-79
2022/01/05 03:56:23;;;;;;;12.00;3.80;;;3.00;99.90;;;;;;5069253;28;20522;-80
2022/01/05 03:58:50;;;;;;;16.30;3.87;;;3.00;99.90;;;;;;5060072;28;20472;-79
2022/01/05 04:01:17;;;;;;;9.27;4.17;;;3.00;99.90;;;;;;5058206;28;20463;-78
2022/01/05 04:03:44;;;;;;;10.70;4.80;;;2.90;99.90;;;;;;5072081;28;20493;-80
2022/01/05 04:06:12;;;;;;;12.03;4.40;;;2.90;99.90;;;;;;5078563;28;20451;-79
2022/01/05 04:08:39;;;;;;;8.90;4.10;;;2.80;99.90;;;;;;5072425;28;20511;-79
2022/01/05 04:11:05;;;;;;;16.90;4.27;;;2.80;99.90;;;;;;5064961;28;20467;-79
2022/01/05 04:13:32;;;;;;;8.17;3.87;;;2.70;99.90;;;;;;5075280;28;20544;-79
2022/01/05 04:15:59;;;;;;;10.50;3.57;;;2.70;99.90;;;;;;5065239;28;20536;-79
2022/01/05 04:18:26;;;;;;;13.90;3.70;;;2.70;99.90;;;;;;5064742;28;20478;-80
2022/01/05 04:20:53;;;;;;;10.63;3.07;;;2.70;99.90;;;;;;5065422;28;20447;-80
2022/01/05 04:23:21;;;;;;;6.80;2.90;;;2.60;99.90;;;;;;5080305;28;20464;-80
2022/01/05 04:25:47;;;;;;;11.00;4.03;;;2.60;99.90;;;;;;5081148;28;20455;-80
2022/01/05 04:28:14;;;;;;;9.67;3.00;;;2.70;99.90;;;;;;5071260;28;20493;-80
2022/01/05 04:30:41;;;;;;;11.93;2.93;;;2.60;99.90;;;;;;5062884;28;20523;-79
2022/01/05 04:33:08;;;;;;;10.00;3.13;;;2.60;99.90;;;;;;5072464;28;20455;-80
2022/01/05 04:35:34;;;;;;;11.00;2.80;;;2.50;99.90;;;;;;5077790;28;20464;-79
2022/01/05 04:38:01;;;;;;;9.77;3.10;;;2.50;99.90;;;;;;5074057;28;20467;-80
2022/01/05 04:40:31;;;;;;;7.60;2.80;;;2.50;99.90;;;;;;5075358;28;20473;-79
2022/01/05 04:42:58;;;;;;;9.47;2.80;;;2.50;99.90;;;;;;5080852;28;20451;-79
2022/01/05 04:45:25;;;;;;;9.60;3.10;;;2.40;99.90;;;;;;5063440;28;20456;-80
2022/01/05 04:47:52;;;;;;;5.50;2.87;;;2.40;99.90;;;;;;5071839;28;20483;-81
2022/01/05 04:50:19;;;;;;;10.03;2.37;;;2.40;99.90;;;;;;5082127;28;20484;-81
2022/01/05 04:52:45;;;;;;;10.20;3.65;;;2.40;99.90;;;;;;5079088;28;20491;-80
2022/01/05 04:55:12;;;;;;;11.75;2.72;;;2.40;99.90;;;;;;5077931;28;20204;-81
2022/01/05 04:57:40;;;;;;;12.65;3.10;;;2.30;99.90;;;;;;5064335;28;20239;-79
2022/01/05 05:00:08;;;;;;;6.23;2.13;;;2.30;99.90;;;;;;5077420;28;20193;-79
2022/01/05 05:02:35;;;;;;;11.23;2.80;;;2.30;99.90;;;;;;5074616;28;20444;-78
2022/01/05 05:05:02;;;;;;;8.75;2.67;;;2.30;99.90;;;;;;5067876;28;20450;-82
2022/01/05 05:07:29;;;;;;;7.10;2.63;;;2.30;99.90;;;;;;5065644;28;20284;-81
2022/01/05 05:09:56;;;;;;;6.70;2.87;;;2.30;99.90;;;;;;5065176;28;20450;-81
2022/01/05 05:12:23;;;;;;;9.95;2.67;;;2.30;99.90;;;;;;5065080;28;20456;-81
2022/01/05 05:14:51;;;;;;;12.73;2.97;;;2.30;99.90;;;;;;5059258;28;20205;-81
2022/01/05 05:17:18;;;;;;;4.97;2.20;;;2.30;99.90;;;;;;5058884;28;20440;-81
2022/01/05 05:19:44;;;;;;;6.60;2.70;;;2.30;99.90;;;;;;5059171;28;20284;-81
2022/01/05 05:22:11;;;;;;;12.83;3.17;;;2.30;99.90;;;;;;5068614;28;20446;-81
2022/01/05 05:24:38;;;;;;;8.20;2.37;;;2.30;99.90;;;;;;5073660;28;20460;-81
2022/01/05 05:27:06;;;;;;;6.00;1.95;;;2.30;99.90;;;;;;5077806;28;20446;-82
2022/01/05 05:29:33;;;;;;;8.27;2.60;;;2.30;99.90;;;;;;5072092;28;20266;-81
2022/01/05 05:32:01;;;;;;;7.45;2.65;;;2.30;99.90;;;;;;5064049;28;20455;-80
2022/01/05 05:34:28;;;;;;;15.60;3.37;;;2.30;99.90;;;;;;5075547;28;20264;-81
2022/01/05 05:36:55;;;;;;;12.82;3.83;;;2.30;99.90;;;;;;5080433;28;20540;-80
2022/01/05 05:39:21;;;;;;;13.27;3.90;;;2.30;99.90;;;;;;5066296;28;20225;-82
2022/01/05 05:41:48;;;;;;;11.23;3.90;;;2.20;99.90;;;;;;5072207;28;20526;-80
2022/01/05 05:44:15;;;;;;;35.33;11.60;;;2.20;99.90;;;;;;5067944;28;20511;-80
2022/01/05 05:46:42;;;;;;;15.38;4.75;;;2.30;99.90;;;;;;5076298;28;20212;-80
2022/01/05 05:49:10;;;;;;;9.30;4.70;;;2.30;99.90;;;;;;5063034;28;20225;-80
2022/01/05 05:51:37;;;;;;;9.52;3.83;;;2.30;99.90;;;;;;5066288;28;20458;-80
2022/01/05 05:54:04;;;;;;;9.80;3.90;;;2.30;99.90;;;;;;5063616;28;20284;-80
2022/01/05 05:56:31;;;;;;;5.43;2.60;;;2.30;99.90;;;;;;5068185;28;20206;-79
2022/01/05 05:58:58;;;;;;;9.63;2.90;;;2.30;99.90;;;;;;5073686;28;20469;-81
2022/01/05 06:01:25;;;;;;;9.43;2.73;;;2.30;99.90;;;;;;5082784;28;20285;-79
2022/01/05 06:03:52;;;;;;;14.88;3.13;;;2.20;99.90;;;;;;5079299;28;21135;-80
2022/01/05 06:06:20;;;;;;;13.70;4.32;;;2.20;99.90;;;;;;5064684;28;20194;-80
2022/01/05 06:08:47;;;;;;;14.05;3.85;;;2.20;99.90;;;;;;5067933;28;20213;-80
2022/01/05 06:11:13;;;;;;;9.47;2.83;;;2.20;99.90;;;;;;5083526;28;20218;-81
2022/01/05 06:13:40;;;;;;;7.72;3.30;;;2.20;99.90;;;;;;5084347;28;20506;-80
2022/01/05 06:16:07;;;;;;;7.90;2.30;;;2.20;99.90;;;;;;5077838;28;20292;-80
2022/01/05 06:18:34;;;;;;;6.90;2.80;;;2.30;99.90;;;;;;5067689;28;20467;-81
2022/01/05 06:21:01;;;;;;;11.10;2.90;;;2.30;99.90;;;;;;5069845;28;20455;-81
2022/01/05 06:23:29;;;;;;;4.60;2.37;;;2.30;99.90;;;;;;5082246;28;20526;-81
2022/01/05 06:25:56;;;;;;;8.50;2.90;;;2.40;99.90;;;;;;5084976;28;20451;-80
2022/01/05 06:28:23;;;;;;;15.17;4.10;;;2.40;99.90;;;;;;5069433;28;20229;-80
2022/01/05 06:30:49;;;;;;;12.00;3.50;;;2.40;99.90;;;;;;5068212;28;20461;-80
2022/01/05 06:33:16;;;;;;;11.77;3.97;;;2.40;99.90;;;;;;5082263;28;20447;-79
2022/01/05 06:35:43;;;;;;;14.40;4.10;;;2.50;99.90;;;;;;5064733;28;20443;-80
2022/01/05 06:38:10;;;;;;;9.33;3.60;;;2.60;99.90;;;;;;5071729;28;20467;-81
2022/01/05 06:40:38;;;;;;;10.67;3.70;;;2.70;99.90;;;;;;5064734;28;20424;-79
2022/01/05 06:43:05;;;;;;;12.07;3.30;;;2.70;99.90;;;;;;5063008;28;20451;-80
2022/01/05 06:45:32;;;;;;;7.00;3.03;;;2.80;99.90;;;;;;5067318;28;20609;-79
2022/01/05 06:47:59;;;;;;;10.30;3.07;;;2.90;99.90;;;;;;5083730;28;20471;-80
2022/01/05 06:50:26;;;;;;;9.38;3.55;;;2.90;99.90;;;;;;5080860;28;21035;-81
2022/01/05 06:52:55;;;;;;;11.30;5.23;;;2.90;99.90;;;;;;5075211;28;20201;-80
2022/01/05 06:55:22;;;;;;;8.85;3.58;;;2.90;99.90;;;;;;5069065;28;20452;-82
2022/01/05 06:57:51;;;;;;;15.60;3.90;;;3.00;99.90;;;;;;5087876;28;20234;-82
2022/01/05 07:00:20;;;;;;;8.63;3.10;;;3.10;99.90;;;;;;5080129;28;20469;-82
2022/01/05 07:02:46;;;;;;;11.57;4.20;;;3.10;99.90;;;;;;5085717;28;20838;-81
2022/01/05 07:05:13;;;;;;;8.80;3.00;;;3.10;99.90;;;;;;5071717;28;20523;-81
2022/01/05 07:07:40;;;;;;;6.10;3.43;;;3.10;99.90;;;;;;5075273;28;20470;-80
2022/01/05 07:10:09;;;;;;;9.63;3.70;;;3.10;99.90;;;;;;5071709;28;20486;-80
2022/01/05 07:12:38;;;;;;;8.63;3.90;;;3.10;99.90;;;;;;5068345;28;20508;-82
2022/01/05 07:15:07;;;;;;;13.10;3.63;;;3.10;99.90;;;;;;5075677;28;20451;-80
2022/01/05 07:17:34;;;;;;;20.93;3.90;;;3.10;99.90;;;;;;5082210;28;20484;-81
2022/01/05 07:20:00;;;;;;;12.73;3.73;;;3.00;99.90;;;;;;5085084;28;20455;-79
2022/01/05 07:22:27;;;;;;;9.83;3.37;;;2.80;99.90;;;;;;5086771;28;20457;-80
2022/01/05 07:24:56;;;;;;;8.20;2.87;;;2.80;99.90;;;;;;5071880;28;20456;-81
2022/01/05 07:27:23;;;;;;;10.77;3.70;;;2.80;99.90;;;;;;5070389;28;20499;-81
2022/01/05 07:29:49;;;;;;;11.07;3.43;;;2.80;99.90;;;;;;5082194;28;20542;-81
2022/01/05 07:32:18;;;;;;;12.13;3.40;;;2.80;99.90;;;;;;5087600;28;20522;-81
2022/01/05 07:34:45;;;;;;;7.90;3.63;;;2.70;99.90;;;;;;5078911;28;20759;-81
2022/01/05 07:37:11;;;;;;;13.43;4.07;;;2.70;99.90;;;;;;5079026;28;20459;-81
2022/01/05 07:39:38;;;;;;;19.70;3.95;;;2.70;99.90;;;;;;5072304;28;20456;-81
2022/01/05 07:42:06;;;;;;;10.00;3.70;;;2.70;99.90;;;;;;5077536;28;20201;-81
2022/01/05 07:44:33;;;;;;;11.90;4.17;;;2.70;99.90;;;;;;5081591;28;20865;-81
2022/01/05 07:47:00;;;;;;;16.77;5.20;;;2.80;99.90;;;;;;5083831;28;20823;-81
2022/01/05 07:49:28;;;;;;;12.17;3.80;;;2.90;99.90;;;;;;5084523;28;20551;-81
2022/01/05 07:51:55;;;;;;;11.17;3.90;;;3.00;99.90;;;;;;5076185;28;20456;-81
2022/01/05 07:54:22;;;;;;;12.33;4.00;;;3.10;99.90;;;;;;5082309;28;20455;-82
2022/01/05 07:56:49;;;;;;;13.57;3.40;;;3.20;99.90;;;;;;5082087;28;20450;-81
2022/01/05 07:59:15;;;;;;;12.50;3.83;;;3.20;99.90;;;;;;5082936;28;20481;-81
2022/01/05 08:01:42;;;;;;;13.50;4.77;;;3.30;99.90;;;;;;5077656;28;20515;-81
2022/01/05 08:04:09;;;;;;;11.73;3.50;;;3.30;99.90;;;;;;5075977;28;20459;-81
2022/01/05 08:06:37;;;;;;;6.93;2.70;;;3.40;99.90;;;;;;5087047;28;20463;-81
2022/01/05 08:09:04;;;;;;;10.93;5.07;;;3.50;99.90;;;;;;5082772;28;20573;-81
2022/01/05 08:11:31;;;;;;;14.43;3.43;;;3.50;99.90;;;;;;5075922;28;20562;-81
2022/01/05 08:13:58;;;;;;;12.77;4.50;;;3.50;99.90;;;;;;5077432;28;20903;-82
2022/01/05 08:16:24;;;;;;;7.53;3.07;;;3.50;99.90;;;;;;5075205;28;20451;-81
2022/01/05 08:18:51;;;;;;;16.07;4.37;;;3.60;99.90;;;;;;5080130;28;20467;-81
2022/01/05 08:21:18;;;;;;;8.83;3.80;;;3.60;99.90;;;;;;5071568;28;20455;-81
2022/01/05 08:23:46;;;;;;;12.20;4.37;;;3.60;99.90;;;;;;5072654;28;20463;-80
2022/01/05 08:26:13;;;;;;;8.80;4.00;;;3.60;99.90;;;;;;5076458;28;20978;-82
2022/01/05 08:28:40;;;;;;;17.87;3.87;;;3.60;99.90;;;;;;5071966;28;20498;-81
2022/01/05 08:31:07;;;;;;;7.50;4.10;;;3.60;99.90;;;;;;5063755;28;20464;-81
2022/01/05 08:33:34;;;;;;;7.27;3.33;;;3.70;99.90;;;;;;5070236;28;20458;-82
2022/01/05 08:36:02;;;;;;;7.17;4.00;;;3.70;99.90;;;;;;5066939;28;21031;-81
2022/01/05 08:38:29;;;;;;;17.00;4.60;;;3.80;99.90;;;;;;5069284;28;20471;-82
2022/01/05 08:40:57;;;;;;;9.53;4.13;;;3.90;99.90;;;;;;5067932;28;20538;-81
2022/01/05 08:43:24;;;;;;;15.03;3.90;;;3.90;99.90;;;;;;5077057;28;20502;-81
2022/01/05 08:45:51;;;;;;;11.23;3.67;;;4.00;99.90;;;;;;5065442;28;20455;-84
2022/01/05 08:48:18;;;;;;;16.70;4.93;;;3.90;99.90;;;;;;5077751;28;20463;-83
2022/01/05 08:50:45;;;;;;;9.43;3.83;;;3.80;99.90;;;;;;5062445;28;20474;-80
2022/01/05 08:53:12;;;;;;;13.20;4.50;;;3.90;99.90;;;;;;5073531;28;20496;-81
2022/01/05 08:55:41;;;;;;;8.13;4.10;;;3.90;99.90;;;;;;5066816;28;20459;-82
2022/01/05 08:58:10;;;;;;;11.63;4.27;;;3.90;99.90;;;;;;5074065;28;20478;-81
2022/01/05 09:00:37;;;;;;;7.23;3.37;;;3.90;99.90;;;;;;5067392;28;20444;-80
2022/01/05 09:03:06;;;;;;;8.23;3.63;;;3.90;99.90;;;;;;5073716;28;20842;-81
2022/01/05 09:05:33;;;;;;;11.10;3.80;;;3.90;99.90;;;;;;5064453;28;20452;-81
2022/01/05 09:08:01;;;;;;;13.10;4.40;;;3.90;99.90;;;;;;5066126;28;20475;-81
2022/01/05 09:10:29;;;;;;;7.37;3.60;;;3.90;99.90;;;;;;5066348;28;20492;-81
2022/01/05 09:12:56;;;;;;;10.50;3.50;;;3.90;99.90;;;;;;5079673;28;20516;-81
2022/01/05 09:15:25;;;;;;;14.40;10.03;;;4.00;99.90;;;;;;5075160;28;20510;-81
2022/01/05 09:17:52;;;;;;;9.63;4.33;;;4.10;99.90;;;;;;5077868;28;20478;-81
2022/01/05 09:20:19;;;;;;;15.30;5.30;;;4.20;99.90;;;;;;5069691;28;20452;-82
2022/01/05 09:22:46;;;;;;;11.83;5.67;;;4.20;99.90;;;;;;5077243;28;20514;-81
2022/01/05 09:25:14;;;;;;;16.43;5.00;;;4.30;99.90;;;;;;5084158;28;20448;-82
2022/01/05 09:27:41;;;;;;;20.73;5.10;;;4.40;99.90;;;;;;5061938;28;20479;-82
2022/01/05 09:30:11;;;;;;;9.33;5.10;;;4.30;99.90;;;;;;5062129;28;20581;-82
2022/01/05 09:32:39;;;;;;;10.20;4.80;;;4.30;99.90;;;;;;5068885;28;20460;-82
2022/01/05 09:35:09;;;;;;;11.50;5.03;;;4.30;99.90;;;;;;5062521;28;20483;-83
2022/01/05 09:37:40;;;;;;;17.10;6.40;;;4.30;99.90;;;;;;5059921;28;20468;-82
2022/01/05 09:42:52;;;;;;;12.70;6.53;;;4.10;99.90;;;;;;5077882;28;20446;-81
2022/01/05 09:45:22;;;;;;;10.03;5.53;;;4.10;99.90;;;;;;5077946;28;21178;-82
2022/01/05 09:48:25;;;;;;;15.33;6.50;;;4.10;99.90;;;;;;5078383;28;20466;-81
2022/01/05 09:50:59;;;;;;;12.07;8.07;;;4.10;99.90;;;;;;5054163;28;20483;-82
2022/01/05 09:53:26;;;;;;;15.30;7.50;;;4.10;99.90;;;;;;5078676;28;20436;-83
2022/01/05 09:55:53;;;;;;;15.57;6.80;;;4.30;99.90;;;;;;5067763;28;20455;-81
2022/01/05 09:58:22;;;;;;;13.93;6.63;;;4.40;99.90;;;;;;5059974;28;20468;-83
2022/01/05 10:00:53;;;;;;;19.33;5.77;;;4.50;99.90;;;;;;5070250;28;20803;-81
2022/01/05 10:03:23;;;;;;;13.20;7.40;;;4.50;99.90;;;;;;5070793;28;20463;-82
2022/01/05 10:05:50;;;;;;;19.17;8.40;;;4.40;99.90;;;;;;5071021;28;20530;-82
2022/01/05 10:08:17;;;;;;;14.30;8.03;;;4.50;99.90;;;;;;5067573;28;20472;-82
2022/01/05 10:10:43;;;;;;;18.17;7.00;;;4.40;99.90;;;;;;5067099;28;20479;-82
2022/01/05 10:13:10;;;;;;;11.17;7.23;;;4.40;99.90;;;;;;5081068;28;20454;-82
2022/01/05 10:15:37;;;;;;;14.67;6.90;;;4.40;99.90;;;;;;5080086;28;20451;-83
2022/01/05 10:18:12;;;;;;;12.00;5.93;;;4.30;99.90;;;;;;5080858;28;20550;-83
2022/01/05 10:20:55;;;;;;;13.47;6.10;;;4.20;99.90;;;;;;5082525;28;20461;-83
2022/01/05 10:23:34;;;;;;;12.17;6.20;;;4.10;99.90;;;;;;5071033;28;20473;-83
2022/01/05 10:26:20;;;;;;;12.00;6.53;;;4.10;99.90;;;;;;5073285;28;20471;-82
2022/01/05 10:28:47;;;;;;;14.63;7.43;;;4.00;99.90;;;;;;5079924;28;20477;-83
2022/01/05 10:31:15;;;;;;;17.50;5.90;;;3.90;99.90;;;;;;5070316;28;20877;-82
2022/01/05 10:33:42;;;;;;;18.87;5.40;;;3.80;99.90;;;;;;5066721;28;20451;-82
2022/01/05 10:36:11;;;;;;;14.57;6.67;;;3.90;99.90;;;;;;5068239;28;20443;-81
2022/01/05 10:38:37;;;;;;;15.03;6.00;;;3.80;99.90;;;;;;5073017;28;20472;-83
2022/01/05 10:41:15;;;;;;;8.90;4.83;;;3.80;99.90;;;;;;5065072;28;20454;-83
2022/01/05 10:44:24;;;;;;;13.40;5.80;;;3.90;99.90;;;;;;5063418;28;20448;-82
2022/01/05 10:46:52;;;;;;;15.20;6.13;;;3.90;99.90;;;;;;5036937;28;20455;-81
2022/01/05 10:49:27;;;;;;;16.23;5.90;;;4.00;99.90;;;;;;5069720;28;20486;-82
2022/01/05 10:51:57;;;;;;;18.20;6.20;;;3.90;99.90;;;;;;5069032;28;20451;-81
2022/01/05 10:54:26;;;;;;;11.90;5.80;;;4.00;99.90;;;;;;5079365;28;20459;-82
2022/01/05 10:56:53;;;;;;;8.20;5.80;;;4.00;99.90;;;;;;5080950;28;20465;-80
2022/01/05 10:59:34;;;;;;;12.23;7.00;;;3.90;99.90;;;;;;5061219;28;20475;-79
2022/01/05 11:02:19;;;;;;;18.43;8.90;;;3.90;99.90;;;;;;5079046;28;20451;-81
2022/01/05 11:04:46;;;;;;;13.83;7.77;;;4.00;99.90;;;;;;5068122;28;20521;-81
2022/01/05 11:07:20;;;;;;;20.47;8.23;;;4.00;99.90;;;;;;5083481;28;20461;-81
2022/01/05 11:09:53;;;;;;;14.07;9.02;;;3.90;99.90;;;;;;5073871;28;20461;-80
2022/01/05 11:12:20;;;;;;;15.83;7.87;;;3.90;99.90;;;;;;5058323;28;20847;-80
2022/01/05 11:14:47;;;;;;;18.90;10.40;;;3.90;99.90;;;;;;5058308;28;20448;-80
2022/01/05 11:17:17;;;;;;;13.67;7.27;;;3.90;99.90;;;;;;5075207;28;21000;-80
2022/01/05 11:19:45;;;;;;;22.20;8.90;;;3.90;99.90;;;;;;5070709;28;20450;-81
2022/01/05 11:22:16;;;;;;;15.83;7.10;;;3.80;99.90;;;;;;5064942;28;20459;-80
2022/01/05 11:24:45;;;;;;;13.93;6.53;;;3.80;99.90;;;;;;5057865;28;20535;-81
2022/01/05 11:27:14;;;;;;;14.13;7.50;;;3.80;99.90;;;;;;5058059;28;20445;-80
2022/01/05 11:29:41;;;;;;;14.20;8.57;;;3.80;99.90;;;;;;5061646;28;20547;-81
2022/01/05 11:32:10;;;;;;;16.30;8.00;;;3.80;99.90;;;;;;5061087;28;20793;-81
2022/01/05 11:34:38;;;;;;;15.87;7.90;;;3.80;99.90;;;;;;5069755;28;20465;-80
2022/01/05 11:37:07;;;;;;;11.13;7.03;;;3.80;99.90;;;;;;5070658;28;20461;-80
2022/01/05 11:39:41;;;;;;;17.00;6.70;;;3.90;99.90;;;;;;5074644;28;20468;-80
2022/01/05 11:42:10;;;;;;;15.60;7.90;;;3.90;99.90;;;;;;5064742;28;20451;-79
2022/01/05 11:44:46;;;;;;;15.83;8.20;;;3.90;99.90;;;;;;5068556;28;20459;-79
2022/01/05 11:47:23;;;;;;;10.83;7.17;;;3.90;99.90;;;;;;5070816;28;20453;-79
2022/01/05 11:49:50;;;;;;;17.07;7.60;;;3.90;99.90;;;;;;5063011;28;20483;-80
2022/01/05 11:52:17;;;;;;;18.60;5.77;;;3.90;99.90;;;;;;5067055;28;20804;-81
2022/01/05 11:55:03;;;;;;;12.47;5.70;;;3.90;99.90;;;;;;5064408;28;21007;-81
2022/01/05 11:57:30;;;;;;;12.40;6.60;;;3.90;99.90;;;;;;5062653;28;20467;-80
2022/01/05 12:00:18;;;;;;;21.57;7.07;;;3.90;99.90;;;;;;5061000;28;20454;-80
2022/01/05 12:02:45;;;;;;;13.67;6.70;;;4.00;99.90;;;;;;5061600;28;20452;-80
2022/01/05 12:05:12;;;;;;;11.20;6.77;;;4.00;99.90;;;;;;5066128;28;20543;-80
2022/01/05 12:07:42;;;;;;;12.13;5.83;;;4.10;99.90;;;;;;5069865;28;20471;-80
2022/01/05 12:10:16;;;;;;;12.30;5.30;;;4.10;99.90;;;;;;5063135;28;20565;-80
2022/01/05 12:12:59;;;;;;;17.43;6.40;;;4.20;99.90;;;;;;5064168;28;20451;-81
2022/01/05 12:15:52;;;;;;;12.40;6.80;;;4.30;99.90;;;;;;5061294;28;20447;-80
2022/01/05 12:18:24;;;;;;;15.17;6.87;;;4.30;99.90;;;;;;5073614;28;20479;-81
2022/01/05 12:20:52;;;;;;;14.63;6.60;;;4.30;99.90;;;;;;5068354;28;20451;-79
2022/01/05 12:23:22;;;;;;;13.63;5.97;;;4.30;99.90;;;;;;5065317;28;20798;-80
2022/01/05 12:26:18;;;;;;;11.63;6.00;;;4.40;99.90;;;;;;5066909;28;20455;-81
2022/01/05 12:28:54;;;;;;;17.33;8.63;;;4.40;99.90;;;;;;5067976;28;20473;-80
2022/01/05 12:31:55;;;;;;;15.30;6.87;;;4.30;99.90;;;;;;5064697;28;20491;-80
2022/01/05 12:34:51;;;;;;;17.73;8.60;;;4.30;99.90;;;;;;5061998;28;21010;-81
2022/01/05 12:37:38;;;;;;;13.00;7.90;;;4.20;99.90;;;;;;5070137;28;20459;-81
2022/01/05 12:40:23;;;;;;;14.07;5.87;;;4.30;99.90;;;;;;5059558;28;20450;-81
2022/01/05 12:43:34;;;;;;;21.60;7.23;;;4.30;99.90;;;;;;5057523;28;20845;-81
2022/01/05 12:46:05;;;;;;;11.13;5.87;;;4.40;99.90;;;;;;5057903;28;20453;-80
2022/01/05 12:49:03;;;;;;;16.80;7.00;;;4.40;99.90;;;;;;5057638;28;20472;-82
2022/01/05 12:51:52;;;;;;;16.67;7.90;;;4.40;99.90;;;;;;5065056;28;20517;-81
2022/01/05 12:54:21;;;;;;;18.30;8.17;;;4.40;99.90;;;;;;5063494;28;20454;-81
2022/01/05 12:56:51;;;;;;;14.23;6.53;;;4.40;99.90;;;;;;5066491;28;20444;-81
2022/01/05 12:59:23;;;;;;;21.37;7.93;;;4.50;99.90;;;;;;5065514;28;20469;-82
2022/01/05 13:01:53;;;;;;;17.43;6.93;;;4.50;99.90;;;;;;5057324;28;20433;-81